createdAt,value
2022-08-11T00:00:16.928Z,24.59
2022-08-11T00:03:20.141Z,24.50
2022-08-11T00:06:42.128Z,24.50
2022-08-11T00:09:43.701Z,24.44
2022-08-11T00:12:56.672Z,24.47
2022-08-11T00:15:59.048Z,24.44
2022-08-11T00:19:02.367Z,24.43
2022-08-11T00:22:06.550Z,24.41
2022-08-11T00:25:11.230Z,24.43
2022-08-11T00:28:31.950Z,24.43
2022-08-11T00:31:35.424Z,24.37
2022-08-11T00:34:38.208Z,24.35
2022-08-11T00:37:44.774Z,24.40
2022-08-11T00:40:57.056Z,24.36
2022-08-11T00:44:14.762Z,24.33
2022-08-11T00:47:31.413Z,24.33
2022-08-11T00:51:12.317Z,24.31
2022-08-11T00:55:14.621Z,24.25
2022-08-11T00:58:24.808Z,24.23
2022-08-11T01:01:37.087Z,24.22
2022-08-11T01:04:56.972Z,24.17
2022-08-11T01:08:21.961Z,24.12
2022-08-11T01:11:55.501Z,24.14
2022-08-11T01:15:56.995Z,24.11
2022-08-11T01:20:45.576Z,24.03
2022-08-11T01:23:31.172Z,24.00
2022-08-11T01:27:18.930Z,23.86
2022-08-11T01:30:44.281Z,23.81
2022-08-11T01:34:07.197Z,23.78
2022-08-11T01:37:17.471Z,23.74
2022-08-11T01:40:30.634Z,23.73
2022-08-11T01:44:22.024Z,23.73
2022-08-11T01:47:54.093Z,23.70
2022-08-11T01:51:19.676Z,23.70
2022-08-11T01:54:51.273Z,23.63
2022-08-11T01:58:13.298Z,23.56
2022-08-11T02:01:45.694Z,23.52
2022-08-11T02:04:54.846Z,23.50
2022-08-11T02:08:05.262Z,23.50
2022-08-11T02:11:31.125Z,23.52
2022-08-11T02:15:12.295Z,23.54
2022-08-11T02:18:18.493Z,23.51
2022-08-11T02:21:46.364Z,23.47
2022-08-11T02:25:18.385Z,23.45
2022-08-11T02:28:28.943Z,23.42
2022-08-11T02:32:23.748Z,23.44
2022-08-11T02:35:27.777Z,23.41
2022-08-11T02:38:45.239Z,23.40
2022-08-11T02:42:34.915Z,23.38
2022-08-11T02:45:47.235Z,23.39
2022-08-11T02:49:22.314Z,23.35
2022-08-11T02:52:45.418Z,23.30
2022-08-11T02:56:22.869Z,23.25
2022-08-11T03:00:00.423Z,23.22
2022-08-11T03:03:17.418Z,23.19
2022-08-11T03:06:35.574Z,23.16
2022-08-11T03:09:47.157Z,23.07
2022-08-11T03:13:34.853Z,22.96
2022-08-11T03:16:54.789Z,22.79
2022-08-11T03:20:23.491Z,22.69
2022-08-11T03:23:31.236Z,22.62
2022-08-11T03:26:56.174Z,22.55
2022-08-11T03:30:26.479Z,22.52
2022-08-11T03:33:52.108Z,22.46
2022-08-11T03:37:16.084Z,22.47
2022-08-11T03:40:39.315Z,22.33
2022-08-11T03:44:34.141Z,22.25
2022-08-11T03:47:55.711Z,22.19
2022-08-11T03:51:25.076Z,22.22
2022-08-11T03:54:45.955Z,22.18
2022-08-11T03:58:02.874Z,22.18
2022-08-11T04:01:35.485Z,22.13
2022-08-11T04:05:07.123Z,22.07
2022-08-11T04:08:34.160Z,22.04
2022-08-11T04:11:54.902Z,21.99
2022-08-11T04:15:45.099Z,21.94
2022-08-11T04:19:21.397Z,21.93
2022-08-11T04:22:48.373Z,21.88
2022-08-11T04:26:34.271Z,21.83
2022-08-11T04:30:09.193Z,21.78
2022-08-11T04:33:52.058Z,21.77
2022-08-11T04:37:34.129Z,21.79
2022-08-11T04:41:08.779Z,21.75
2022-08-11T04:44:45.545Z,21.79
2022-08-11T04:48:40.488Z,21.79
2022-08-11T04:52:12.847Z,21.81
2022-08-11T04:55:40.839Z,21.80
2022-08-11T04:59:07.832Z,21.70
2022-08-11T05:02:28.137Z,21.70
2022-08-11T05:05:57.543Z,21.67
2022-08-11T05:09:04.964Z,21.66
2022-08-11T05:12:34.231Z,21.75
2022-08-11T05:16:05.876Z,21.88
2022-08-11T05:19:26.202Z,22.04
2022-08-11T05:22:49.174Z,22.13
2022-08-11T05:26:47.541Z,22.21
2022-08-11T05:30:00.376Z,22.31
2022-08-11T05:33:33.168Z,22.45
2022-08-11T05:36:46.776Z,22.58
2022-08-11T05:40:14.584Z,22.71
2022-08-11T05:43:35.534Z,22.88
2022-08-11T05:47:01.245Z,23.00
2022-08-11T05:50:32.740Z,23.13
2022-08-11T05:53:53.513Z,23.24
2022-08-11T05:56:58.566Z,23.36
2022-08-11T06:00:10.320Z,23.48
2022-08-11T06:03:22.802Z,23.56
2022-08-11T06:06:27.017Z,23.61
2022-08-11T06:09:37.197Z,23.71
2022-08-11T06:12:40.750Z,23.79
2022-08-11T06:15:48.067Z,23.80
2022-08-11T06:18:49.868Z,23.85
2022-08-11T06:21:53.059Z,23.99
2022-08-11T06:24:59.851Z,24.00
2022-08-11T06:28:05.267Z,24.16
2022-08-11T06:31:24.052Z,24.21
2022-08-11T06:34:39.022Z,24.25
2022-08-11T06:38:11.952Z,24.38
2022-08-11T06:41:30.498Z,24.50
2022-08-11T06:44:44.176Z,24.52
2022-08-11T06:47:47.690Z,24.63
2022-08-11T06:51:14.224Z,24.61
2022-08-11T06:54:15.867Z,24.72
2022-08-11T06:57:37.567Z,24.75
2022-08-11T07:00:39.477Z,24.78
2022-08-11T07:03:47.309Z,24.85
2022-08-11T07:07:19.999Z,24.81
2022-08-11T07:10:51.863Z,24.94
2022-08-11T07:14:17.934Z,25.18
2022-08-11T07:17:24.920Z,25.28
2022-08-11T07:21:05.223Z,25.32
2022-08-11T07:25:01.871Z,25.31
2022-08-11T07:28:30.532Z,25.44
2022-08-11T07:31:37.101Z,25.53
2022-08-11T07:34:42.905Z,25.66
2022-08-11T07:37:50.782Z,25.53
2022-08-11T07:41:03.092Z,25.70
2022-08-11T07:44:11.563Z,25.78
2022-08-11T07:47:33.064Z,25.86
2022-08-11T07:50:56.249Z,26.03
2022-08-11T07:54:07.587Z,25.90
2022-08-11T07:58:02.221Z,26.09
2022-08-11T08:01:22.362Z,26.27
2022-08-11T08:04:46.804Z,26.26
2022-08-11T08:08:07.513Z,26.11
2022-08-11T08:11:27.826Z,26.32
2022-08-11T08:14:48.561Z,26.58
2022-08-11T08:18:20.450Z,26.84
2022-08-11T08:21:16.763Z,26.80
2022-08-11T08:24:20.996Z,26.87
2022-08-11T08:27:25.854Z,26.84
2022-08-11T08:30:48.252Z,26.90
2022-08-11T08:33:50.008Z,26.91
2022-08-11T08:36:51.896Z,27.10
2022-08-11T08:39:53.980Z,27.25
2022-08-11T08:42:58.324Z,27.25
2022-08-11T08:46:00.455Z,26.97
2022-08-11T08:49:03.811Z,27.20
2022-08-11T08:52:21.064Z,27.50
2022-08-11T08:55:30.841Z,27.53
2022-08-11T08:58:36.288Z,27.45
2022-08-11T09:01:50.888Z,27.69
2022-08-11T09:04:53.232Z,27.94
2022-08-11T09:07:58.128Z,27.92
2022-08-11T09:11:21.396Z,27.85
2022-08-11T09:14:50.336Z,27.99
2022-08-11T09:18:03.548Z,28.17
2022-08-11T09:21:05.689Z,28.41
2022-08-11T09:24:26.581Z,28.51
2022-08-11T09:27:28.486Z,28.79
2022-08-11T09:30:30.577Z,28.86
2022-08-11T09:33:33.361Z,28.85
2022-08-11T09:36:53.894Z,28.88
2022-08-11T09:40:15.308Z,28.88
2022-08-11T09:43:37.982Z,29.02
2022-08-11T09:46:41.515Z,29.18
2022-08-11T09:49:45.199Z,29.31
2022-08-11T09:53:16.843Z,29.37
2022-08-11T09:56:40.945Z,29.10
2022-08-11T09:59:42.485Z,29.35
2022-08-11T10:02:47.153Z,29.43
2022-08-11T10:06:11.239Z,29.63
2022-08-11T10:09:17.869Z,29.73
2022-08-11T10:12:37.190Z,29.50
2022-08-11T10:16:14.820Z,29.80
2022-08-11T10:19:06.358Z,29.89
2022-08-11T10:22:26.872Z,29.72
2022-08-11T10:25:47.572Z,29.78
2022-08-11T10:29:10.022Z,29.83
2022-08-11T10:32:31.629Z,29.84
2022-08-11T10:35:33.544Z,29.94
2022-08-11T10:38:35.778Z,30.09
2022-08-11T10:42:06.555Z,30.30
2022-08-11T10:45:28.415Z,29.81
2022-08-11T10:48:34.929Z,30.21
2022-08-11T10:51:58.604Z,30.35
2022-08-11T10:55:18.702Z,30.20
2022-08-11T10:58:40.236Z,30.29
2022-08-11T11:01:44.075Z,30.42
2022-08-11T11:05:09.160Z,30.68
2022-08-11T11:08:33.836Z,30.88
2022-08-11T11:11:56.822Z,30.74
2022-08-11T11:15:19.760Z,30.76
2022-08-11T11:18:25.148Z,30.84
2022-08-11T11:21:27.275Z,31.23
2022-08-11T11:24:48.221Z,30.93
2022-08-11T11:28:21.372Z,30.98
2022-08-11T11:31:40.976Z,31.07
2022-08-11T11:35:11.016Z,30.94
2022-08-11T11:38:14.114Z,31.18
2022-08-11T11:41:25.113Z,30.55
2022-08-11T11:44:27.644Z,30.78
2022-08-11T11:47:31.161Z,30.93
2022-08-11T11:50:37.195Z,31.21
2022-08-11T11:53:38.653Z,31.35
2022-08-11T11:56:42.548Z,31.27
2022-08-11T12:00:03.349Z,31.40
2022-08-11T12:03:12.012Z,31.65
2022-08-11T12:06:14.477Z,31.74
2022-08-11T12:09:18.355Z,31.95
2022-08-11T12:12:39.705Z,31.99
2022-08-11T12:16:23.777Z,32.02
2022-08-11T12:19:08.409Z,32.09
2022-08-11T12:22:28.990Z,32.03
2022-08-11T12:26:04.438Z,31.76
2022-08-11T12:29:12.490Z,31.86
2022-08-11T12:32:14.552Z,32.10
2022-08-11T12:35:16.545Z,32.17
2022-08-11T12:38:26.046Z,32.14
2022-08-11T12:41:51.685Z,32.12
2022-08-11T12:45:22.252Z,32.15
2022-08-11T12:49:00.971Z,32.38
2022-08-11T12:52:12.734Z,32.48
2022-08-11T12:55:41.782Z,32.62
2022-08-11T12:58:45.372Z,32.73
2022-08-11T13:02:06.470Z,32.78
2022-08-11T13:05:12.611Z,32.45
2022-08-11T13:08:17.310Z,32.66
2022-08-11T13:11:56.555Z,32.73
2022-08-11T13:15:00.477Z,32.73
2022-08-11T13:18:04.774Z,32.68
2022-08-11T13:21:06.404Z,33.02
2022-08-11T13:24:08.113Z,33.13
2022-08-11T13:27:12.317Z,33.15
2022-08-11T13:30:37.044Z,33.19
2022-08-11T13:33:43.078Z,33.33
2022-08-11T13:36:45.787Z,33.01
2022-08-11T13:39:47.678Z,32.91
2022-08-11T13:42:51.083Z,32.95
2022-08-11T13:46:14.020Z,33.36
2022-08-11T13:49:17.162Z,33.24
2022-08-11T13:52:19.328Z,33.08
2022-08-11T13:55:45.526Z,33.06
2022-08-11T13:58:45.719Z,33.26
2022-08-11T14:02:22.744Z,33.45
2022-08-11T14:05:28.932Z,33.53
2022-08-11T14:08:38.436Z,33.66
2022-08-11T14:12:19.951Z,33.59
2022-08-11T14:15:31.908Z,33.57
2022-08-11T14:18:34.412Z,33.68
2022-08-11T14:21:56.831Z,33.55
2022-08-11T14:24:58.740Z,33.55
2022-08-11T14:28:32.503Z,33.56
2022-08-11T14:31:25.363Z,33.62
2022-08-11T14:34:29.361Z,33.71
2022-08-11T14:37:30.918Z,33.97
2022-08-11T14:40:51.087Z,34.02
2022-08-11T14:44:14.841Z,34.04
2022-08-11T14:47:22.900Z,33.99
2022-08-11T14:50:28.908Z,33.87
2022-08-11T14:53:31.613Z,33.94
2022-08-11T14:56:37.046Z,34.15
2022-08-11T14:59:39.018Z,34.22
2022-08-11T15:03:00.648Z,34.37
2022-08-11T15:06:05.009Z,33.75
2022-08-11T15:09:09.006Z,33.96
2022-08-11T15:12:33.260Z,34.03
2022-08-11T15:16:10.656Z,34.08
2022-08-11T15:19:14.496Z,34.40
2022-08-11T15:22:35.017Z,34.46
2022-08-11T15:25:38.913Z,34.24
2022-08-11T15:29:04.591Z,34.38
2022-08-11T15:32:22.725Z,34.26
2022-08-11T15:35:44.424Z,34.02
2022-08-11T15:39:03.732Z,33.63
2022-08-11T15:42:33.673Z,33.91
2022-08-11T15:45:49.053Z,34.20
2022-08-11T15:48:57.879Z,34.04
2022-08-11T15:52:07.967Z,34.03
2022-08-11T15:55:10.399Z,34.35
2022-08-11T15:58:32.065Z,34.22
2022-08-11T16:01:55.412Z,34.13
2022-08-11T16:04:59.675Z,33.84
2022-08-11T16:08:02.468Z,33.95
2022-08-11T16:11:08.781Z,33.98
2022-08-11T16:14:31.844Z,34.05
2022-08-11T16:17:37.858Z,34.24
2022-08-11T16:20:39.565Z,34.15
2022-08-11T16:23:44.811Z,34.21
2022-08-11T16:27:08.004Z,34.10
2022-08-11T16:30:10.604Z,34.13
2022-08-11T16:33:48.104Z,34.17
2022-08-11T16:36:54.124Z,33.99
2022-08-11T16:39:55.775Z,33.78
2022-08-11T16:43:17.141Z,33.63
2022-08-11T16:46:39.005Z,33.48
2022-08-11T16:49:53.246Z,33.37
2022-08-11T16:52:54.776Z,33.44
2022-08-11T16:55:59.972Z,33.43
2022-08-11T16:59:18.171Z,33.40
2022-08-11T17:02:41.528Z,33.17
2022-08-11T17:06:11.158Z,32.96
2022-08-11T17:09:37.939Z,32.65
2022-08-11T17:13:00.198Z,32.34
2022-08-11T17:16:07.042Z,32.31
2022-08-11T17:19:16.960Z,32.28
2022-08-11T17:22:38.500Z,32.15
2022-08-11T17:26:03.543Z,31.87
2022-08-11T17:29:04.722Z,31.73
2022-08-11T17:32:56.383Z,31.56
2022-08-11T17:35:59.877Z,31.55
2022-08-11T17:39:02.225Z,31.59
2022-08-11T17:42:23.168Z,31.56
2022-08-11T17:46:00.512Z,31.55
2022-08-11T17:49:03.717Z,31.50
2022-08-11T17:52:26.073Z,31.51
2022-08-11T17:55:51.751Z,31.51
2022-08-11T17:59:15.363Z,31.39
2022-08-11T18:02:45.991Z,31.26
2022-08-11T18:05:49.195Z,31.17
2022-08-11T18:09:09.938Z,31.15
2022-08-11T18:12:30.966Z,31.10
2022-08-11T18:15:55.596Z,31.05
2022-08-11T18:19:16.697Z,30.94
2022-08-11T18:22:42.104Z,30.84
2022-08-11T18:26:07.354Z,30.69
2022-08-11T18:29:29.923Z,30.64
2022-08-11T18:32:59.162Z,30.51
2022-08-11T18:36:34.036Z,30.36
2022-08-11T18:40:00.923Z,30.18
2022-08-11T18:43:27.260Z,30.03
2022-08-11T18:46:52.698Z,29.92
2022-08-11T18:50:21.089Z,29.79
2022-08-11T18:54:00.356Z,29.64
2022-08-11T18:57:24.224Z,29.48
2022-08-11T19:00:46.103Z,29.42
2022-08-11T19:04:10.858Z,29.40
2022-08-11T19:07:32.984Z,29.43
2022-08-11T19:10:53.900Z,29.40
2022-08-11T19:14:14.780Z,29.34
2022-08-11T19:17:43.563Z,29.25
2022-08-11T19:21:06.754Z,29.05
2022-08-11T19:24:27.708Z,28.81
2022-08-11T19:27:48.953Z,28.66
2022-08-11T19:31:09.800Z,28.58
2022-08-11T19:34:32.704Z,28.53
2022-08-11T19:37:54.665Z,28.48
2022-08-11T19:41:18.470Z,28.32
2022-08-11T19:44:58.770Z,28.15
2022-08-11T19:48:31.798Z,27.89
2022-08-11T19:51:54.507Z,27.69
2022-08-11T19:55:15.583Z,27.53
2022-08-11T19:58:36.135Z,27.55
2022-08-11T20:02:01.682Z,27.54
2022-08-11T20:05:34.670Z,27.31
2022-08-11T20:09:00.126Z,27.24
2022-08-11T20:12:23.135Z,27.25
2022-08-11T20:15:46.034Z,27.09
2022-08-11T20:19:09.231Z,26.94
2022-08-11T20:22:30.969Z,26.89
2022-08-11T20:25:55.797Z,26.82
2022-08-11T20:29:26.144Z,26.59
2022-08-11T20:32:46.913Z,26.49
2022-08-11T20:36:08.158Z,26.54
2022-08-11T20:39:29.467Z,26.51
2022-08-11T20:42:52.148Z,26.34
2022-08-11T20:46:12.518Z,26.18
2022-08-11T20:49:44.923Z,26.08
2022-08-11T20:53:11.697Z,26.02
2022-08-11T20:56:33.210Z,25.88
2022-08-11T20:59:56.874Z,25.79
2022-08-11T21:03:35.530Z,25.69
2022-08-11T21:06:57.326Z,25.66
2022-08-11T21:10:23.215Z,25.56
2022-08-11T21:13:51.486Z,25.49
2022-08-11T21:17:27.784Z,25.38
2022-08-11T21:20:50.388Z,25.27
2022-08-11T21:24:12.866Z,25.22
2022-08-11T21:27:36.900Z,25.17
2022-08-11T21:30:58.374Z,25.12
2022-08-11T21:34:19.715Z,25.04
2022-08-11T21:37:39.675Z,25.02
2022-08-11T21:41:01.621Z,24.91
2022-08-11T21:44:24.864Z,24.89
2022-08-11T21:47:45.623Z,24.77
2022-08-11T21:51:05.384Z,24.70
2022-08-11T21:54:26.257Z,24.63
2022-08-11T21:57:50.208Z,24.55
2022-08-11T22:01:11.068Z,24.36
2022-08-11T22:04:34.955Z,24.31
2022-08-11T22:07:56.858Z,24.24
2022-08-11T22:11:31.802Z,24.14
2022-08-11T22:14:52.913Z,24.13
2022-08-11T22:18:12.650Z,24.02
2022-08-11T22:22:01.216Z,23.99
2022-08-11T22:25:16.605Z,23.95
2022-08-11T22:28:38.854Z,23.89
2022-08-11T22:32:00.142Z,23.77
2022-08-11T22:35:22.345Z,23.70
2022-08-11T22:38:44.108Z,23.70
2022-08-11T22:42:04.963Z,23.74
2022-08-11T22:45:25.265Z,23.69
2022-08-11T22:48:48.247Z,23.61
2022-08-11T22:52:09.145Z,23.62
2022-08-11T22:55:29.387Z,23.78
2022-08-11T22:58:50.430Z,23.92
2022-08-11T23:02:11.852Z,23.97
2022-08-11T23:05:34.008Z,23.97
2022-08-11T23:08:55.882Z,24.06
2022-08-11T23:12:16.852Z,24.04
2022-08-11T23:15:39.176Z,24.03
2022-08-11T23:19:01.357Z,24.09
2022-08-11T23:22:22.183Z,24.19
2022-08-11T23:25:43.797Z,24.16
2022-08-11T23:29:06.100Z,24.17
2022-08-11T23:32:26.549Z,24.13
2022-08-11T23:35:54.938Z,24.06
2022-08-11T23:39:19.467Z,24.06
2022-08-11T23:42:39.418Z,24.01
2022-08-11T23:46:01.133Z,23.97
2022-08-11T23:49:22.350Z,23.96
2022-08-11T23:52:43.581Z,23.93
2022-08-11T23:56:04.941Z,23.95
2022-08-11T23:59:25.312Z,23.91
